createdAt,value
2024-02-21T00:02:22.254Z,102073.56
2024-02-21T00:04:48.936Z,102071.72
2024-02-21T00:07:15.835Z,102072.03
2024-02-21T00:09:42.439Z,102072.88
2024-02-21T00:12:09.315Z,102071.19
2024-02-21T00:14:35.927Z,102072.88
2024-02-21T00:17:02.552Z,102062.59
2024-02-21T00:19:29.185Z,102059.75
2024-02-21T00:21:55.936Z,102057.59
2024-02-21T00:24:22.469Z,102066.34
2024-02-21T00:26:48.976Z,102061.66
2024-02-21T00:29:15.667Z,102060.97
2024-02-21T00:31:42.885Z,102049.53
2024-02-21T00:34:09.662Z,102054.06
2024-02-21T00:36:36.350Z,102054.06
2024-02-21T00:39:03.024Z,102040.78
2024-02-21T00:41:29.704Z,102044.94
2024-02-21T00:43:56.426Z,102044.25
2024-02-21T00:46:23.237Z,102049.78
2024-02-21T00:48:51.088Z,102047.25
2024-02-21T00:51:17.906Z,102043.44
2024-02-21T00:53:44.499Z,102049.78
2024-02-21T00:56:11.030Z,102043.03
2024-02-21T00:58:37.577Z,102040.34
2024-02-21T01:01:04.454Z,102041.34
2024-02-21T01:03:31.115Z,102033.16
2024-02-21T01:05:57.768Z,102043.72
2024-02-21T01:08:24.513Z,102041.72
2024-02-21T01:10:51.161Z,102028.63
2024-02-21T01:13:17.778Z,102028.75
2024-02-21T01:15:44.322Z,102022.41
2024-02-21T01:18:10.987Z,102023.25
2024-02-21T01:20:37.591Z,102017.16
2024-02-21T01:23:04.338Z,102017.34
2024-02-21T01:25:31.015Z,102019.00
2024-02-21T01:27:57.601Z,102008.56
2024-02-21T01:30:24.605Z,101988.06
2024-02-21T01:32:51.146Z,101986.44
2024-02-21T01:35:17.751Z,101990.81
2024-02-21T01:37:44.423Z,101981.09
2024-02-21T01:40:11.717Z,101985.41
2024-02-21T01:42:44.686Z,101980.03
2024-02-21T01:45:11.279Z,101980.72
2024-02-21T01:47:38.680Z,101986.09
2024-02-21T01:50:05.883Z,101976.19
2024-02-21T01:52:34.096Z,101972.50
2024-02-21T01:55:01.170Z,101964.25
2024-02-21T01:57:29.836Z,101975.19
2024-02-21T01:59:56.534Z,101975.69
2024-02-21T02:02:23.852Z,101972.84
2024-02-21T02:04:50.738Z,101970.84
2024-02-21T02:07:17.441Z,101960.94
2024-02-21T02:09:44.777Z,101959.41
2024-02-21T02:12:11.387Z,101961.97
2024-02-21T02:14:37.942Z,101968.66
2024-02-21T02:17:04.706Z,101952.53
2024-02-21T02:19:31.415Z,101963.78
2024-02-21T02:22:10.733Z,101957.56
2024-02-21T02:24:37.298Z,101954.50
2024-02-21T02:27:03.963Z,101952.53
2024-02-21T02:29:33.362Z,101951.53
2024-02-21T02:32:00.002Z,101951.03
2024-02-21T02:34:26.713Z,101942.09
2024-02-21T02:36:53.269Z,101938.69
2024-02-21T02:39:19.847Z,101946.28
2024-02-21T02:41:46.441Z,101938.91
2024-02-21T02:44:13.003Z,101933.59
2024-02-21T02:46:42.210Z,101940.94
2024-02-21T02:49:08.906Z,101929.53
2024-02-21T02:51:35.450Z,101923.16
2024-02-21T02:54:01.956Z,101921.28
2024-02-21T02:56:28.522Z,101918.25
2024-02-21T02:58:55.246Z,101924.13
2024-02-21T03:01:22.184Z,101921.25
2024-02-21T03:03:48.868Z,101923.63
2024-02-21T03:06:15.890Z,101907.72
2024-02-21T03:08:42.493Z,101911.06
2024-02-21T03:11:09.903Z,101905.16
2024-02-21T03:13:36.682Z,101896.13
2024-02-21T03:16:03.478Z,101888.91
2024-02-21T03:18:30.164Z,101884.16
2024-02-21T03:20:56.732Z,101888.06
2024-02-21T03:23:23.255Z,101873.31
2024-02-21T03:25:49.907Z,101869.59
2024-02-21T03:28:17.283Z,101857.31
2024-02-21T03:30:43.968Z,101855.81
2024-02-21T03:33:10.647Z,101857.50
2024-02-21T03:35:37.311Z,101866.56
2024-02-21T03:38:04.049Z,101849.94
2024-02-21T03:40:30.649Z,101849.25
2024-02-21T03:42:57.601Z,101859.34
2024-02-21T03:45:24.166Z,101852.78
2024-02-21T03:47:50.795Z,101845.53
2024-02-21T03:50:17.436Z,101845.69
2024-02-21T03:52:44.114Z,101848.38
2024-02-21T03:55:10.720Z,101833.94
2024-02-21T03:57:37.360Z,101833.63
2024-02-21T04:00:04.747Z,101834.31
2024-02-21T04:02:34.328Z,101832.13
2024-02-21T04:05:00.909Z,101839.19
2024-02-21T04:07:27.524Z,101829.94
2024-02-21T04:09:54.525Z,101824.44
2024-02-21T04:12:21.084Z,101819.06
2024-02-21T04:14:47.830Z,101823.09
2024-02-21T04:17:14.446Z,101827.13
2024-02-21T04:19:41.157Z,101826.75
2024-02-21T04:22:07.812Z,101822.91
2024-02-21T04:24:34.345Z,101828.44
2024-02-21T04:27:00.878Z,101825.41
2024-02-21T04:29:28.952Z,101828.63
2024-02-21T04:31:55.527Z,101830.16
2024-02-21T04:34:22.248Z,101824.78
2024-02-21T04:36:48.893Z,101811.34
2024-02-21T04:39:15.484Z,101802.94
2024-02-21T04:41:41.960Z,101807.59
2024-02-21T04:44:08.517Z,101802.56
2024-02-21T04:46:35.134Z,101795.69
2024-02-21T04:49:01.723Z,101798.03
2024-02-21T04:51:28.252Z,101797.16
2024-02-21T04:53:55.280Z,101791.47
2024-02-21T04:56:21.780Z,101789.59
2024-02-21T04:58:48.439Z,101789.09
2024-02-21T05:01:15.117Z,101787.41
2024-02-21T05:03:41.848Z,101790.63
2024-02-21T05:06:09.052Z,101781.53
2024-02-21T05:08:35.661Z,101786.91
2024-02-21T05:11:02.265Z,101780.19
2024-02-21T05:13:28.901Z,101767.75
2024-02-21T05:15:55.574Z,101766.59
2024-02-21T05:18:22.248Z,101763.44
2024-02-21T05:20:48.956Z,101748.78
2024-02-21T05:23:15.599Z,101757.84
2024-02-21T05:25:42.197Z,101745.09
2024-02-21T05:28:08.986Z,101734.69
2024-02-21T05:30:35.598Z,101734.16
2024-02-21T05:33:08.322Z,101728.63
2024-02-21T05:35:35.877Z,101725.59
2024-02-21T05:38:05.384Z,101716.53
2024-02-21T05:40:32.026Z,101701.41
2024-02-21T05:42:58.859Z,101703.09
2024-02-21T05:45:25.389Z,101689.34
2024-02-21T05:47:52.015Z,101687.47
2024-02-21T05:50:18.705Z,101679.94
2024-02-21T05:52:45.429Z,101680.09
2024-02-21T05:55:11.953Z,101682.94
2024-02-21T05:57:38.476Z,101684.63
2024-02-21T06:00:06.881Z,101682.44
2024-02-21T06:02:39.046Z,101685.63
2024-02-21T06:05:08.640Z,101679.06
2024-02-21T06:07:35.871Z,101673.69
2024-02-21T06:10:03.707Z,101676.06
2024-02-21T06:12:30.313Z,101671.84
2024-02-21T06:14:56.803Z,101680.06
2024-02-21T06:17:23.355Z,101683.41
2024-02-21T06:19:49.894Z,101683.59
2024-02-21T06:22:16.594Z,101680.19
2024-02-21T06:24:44.296Z,101685.25
2024-02-21T06:27:12.433Z,101693.63
2024-02-21T06:29:39.155Z,101695.16
2024-02-21T06:32:05.993Z,101697.66
2024-02-21T06:34:34.724Z,101694.84
2024-02-21T06:37:01.941Z,101704.56
2024-02-21T06:39:30.162Z,101696.31
2024-02-21T06:41:59.809Z,101685.25
2024-02-21T06:44:29.577Z,101684.94
2024-02-21T06:46:56.220Z,101686.94
2024-02-21T06:51:49.216Z,101674.50
2024-02-21T06:54:15.859Z,101672.34
2024-02-21T06:56:42.376Z,101677.50
2024-02-21T06:59:08.903Z,101674.50
2024-02-21T07:01:35.628Z,101664.09
2024-02-21T07:04:02.267Z,101667.00
2024-02-21T07:06:30.401Z,101656.56
2024-02-21T07:08:58.068Z,101656.06
2024-02-21T07:11:25.807Z,101654.06
2024-02-21T07:13:53.730Z,101656.94
2024-02-21T07:16:20.348Z,101649.53
2024-02-21T07:18:46.904Z,101638.28
2024-02-21T07:21:13.631Z,101636.28
2024-02-21T07:23:45.957Z,101643.00
2024-02-21T07:26:12.555Z,101643.50
2024-02-21T07:28:39.199Z,101635.91
2024-02-21T07:31:05.876Z,101636.09
2024-02-21T07:33:32.572Z,101623.66
2024-02-21T07:35:59.096Z,101616.44
2024-02-21T07:38:25.615Z,101610.88
2024-02-21T07:40:52.240Z,101605.38
2024-02-21T07:43:18.906Z,101603.00
2024-02-21T07:45:45.463Z,101597.63
2024-02-21T07:48:12.293Z,101589.75
2024-02-21T07:50:39.110Z,101593.94
2024-02-21T07:53:05.869Z,101594.94
2024-02-21T07:55:32.566Z,101605.19
2024-02-21T07:57:59.117Z,101598.97
2024-02-21T08:00:25.659Z,101597.63
2024-02-21T08:02:52.253Z,101593.59
2024-02-21T08:05:18.944Z,101584.53
2024-02-21T08:07:45.562Z,101588.72
2024-02-21T08:10:12.217Z,101587.22
2024-02-21T08:12:39.692Z,101581.69
2024-02-21T08:15:06.511Z,101587.22
2024-02-21T08:17:33.058Z,101593.91
2024-02-21T08:19:59.783Z,101583.03
2024-02-21T08:22:27.336Z,101567.22
2024-02-21T08:24:54.527Z,101562.84
2024-02-21T08:27:21.202Z,101565.19
2024-02-21T08:29:47.802Z,101562.88
2024-02-21T08:32:14.492Z,101560.19
2024-02-21T08:34:41.089Z,101553.94
2024-02-21T08:37:07.647Z,101546.75
2024-02-21T08:39:34.178Z,101545.03
2024-02-21T08:42:00.826Z,101539.16
2024-02-21T08:44:29.272Z,101542.88
2024-02-21T08:46:56.527Z,101539.53
2024-02-21T08:49:23.880Z,101536.84
2024-02-21T08:51:50.680Z,101536.66
2024-02-21T08:54:18.101Z,101533.44
2024-02-21T08:56:44.907Z,101535.59
2024-02-21T08:59:11.716Z,101533.78
2024-02-21T09:01:38.564Z,101528.06
2024-02-21T09:04:06.345Z,101526.06
2024-02-21T09:06:34.732Z,101520.16
2024-02-21T09:09:01.774Z,101515.81
2024-02-21T09:11:29.202Z,101511.59
2024-02-21T09:13:56.236Z,101504.19
2024-02-21T09:16:24.065Z,101504.22
2024-02-21T09:18:50.846Z,101492.13
2024-02-21T09:21:17.684Z,101486.94
2024-02-21T09:23:45.989Z,101482.56
2024-02-21T09:26:17.477Z,101472.31
2024-02-21T09:28:47.211Z,101468.06
2024-02-21T09:31:13.783Z,101469.09
2024-02-21T09:33:40.488Z,101460.19
2024-02-21T09:36:07.497Z,101455.31
2024-02-21T09:38:34.041Z,101435.63
2024-02-21T09:41:09.582Z,101439.31
2024-02-21T09:43:39.018Z,101430.25
2024-02-21T09:46:05.839Z,101417.97
2024-02-21T09:48:51.984Z,101417.78
2024-02-21T09:51:20.467Z,101412.41
2024-02-21T09:53:55.371Z,101407.88
2024-02-21T09:56:29.353Z,101395.28
2024-02-21T09:58:56.971Z,101388.97
2024-02-21T10:01:33.894Z,101382.25
2024-02-21T10:04:04.144Z,101377.72
2024-02-21T10:06:31.201Z,101376.09
2024-02-21T10:08:57.902Z,101381.25
2024-02-21T10:11:27.687Z,101378.91
2024-02-21T10:14:07.731Z,101372.50
2024-02-21T10:16:35.063Z,101369.47
2024-02-21T10:19:02.031Z,101363.94
2024-02-21T10:21:28.805Z,101353.53
2024-02-21T10:23:55.678Z,101341.94
2024-02-21T10:26:23.633Z,101340.44
2024-02-21T10:28:53.410Z,101328.66
2024-02-21T10:31:26.117Z,101326.13
2024-02-21T10:33:57.060Z,101321.75
2024-02-21T10:36:25.889Z,101322.25
2024-02-21T10:38:56.502Z,101325.09
2024-02-21T10:41:24.642Z,101317.72
2024-02-21T10:43:56.568Z,101306.75
2024-02-21T10:46:25.465Z,101280.91
2024-02-21T10:49:31.272Z,101288.63
2024-02-21T10:52:27.262Z,101280.38
2024-02-21T10:54:59.912Z,101291.13
2024-02-21T10:57:28.761Z,101273.63
2024-02-21T10:59:57.159Z,101293.13
2024-02-21T11:02:24.486Z,101291.25
2024-02-21T11:04:54.061Z,101297.63
2024-02-21T11:07:20.938Z,101297.47
2024-02-21T11:09:56.179Z,101308.38
2024-02-21T11:12:24.450Z,101301.88
2024-02-21T11:14:51.202Z,101296.50
2024-02-21T11:17:19.123Z,101284.56
2024-02-21T11:19:46.262Z,101289.06
2024-02-21T11:22:23.778Z,101277.13
2024-02-21T11:24:50.432Z,101252.31
2024-02-21T11:27:25.645Z,101248.31
2024-02-21T11:29:57.742Z,101247.22
2024-02-21T11:32:25.868Z,101236.31
2024-02-21T11:35:04.789Z,101226.19
2024-02-21T11:37:34.886Z,101223.59
2024-02-21T11:40:02.060Z,101205.63
2024-02-21T11:42:30.192Z,101207.09
2024-02-21T11:45:01.648Z,101192.00
2024-02-21T11:47:30.383Z,101183.72
2024-02-21T11:49:57.330Z,101181.03
2024-02-21T11:52:26.929Z,101164.19
2024-02-21T11:54:55.679Z,101135.81
2024-02-21T11:57:22.765Z,101130.53
2024-02-21T11:59:50.796Z,101127.50
2024-02-21T12:02:18.485Z,101119.22
2024-02-21T12:04:45.848Z,101115.88
2024-02-21T12:07:12.870Z,101094.19
2024-02-21T12:09:42.622Z,101107.28
2024-02-21T12:12:09.431Z,101101.88
2024-02-21T12:14:36.379Z,101094.25
2024-02-21T12:17:07.423Z,101088.88
2024-02-21T12:19:34.902Z,101058.09
2024-02-21T12:22:02.339Z,101071.28
2024-02-21T12:24:30.253Z,101065.63
2024-02-21T12:26:58.093Z,101060.13
2024-02-21T12:29:29.749Z,101052.44
2024-02-21T12:31:56.844Z,101043.16
2024-02-21T12:34:34.166Z,101034.19
2024-02-21T12:37:05.658Z,101025.25
2024-02-21T12:39:33.421Z,101019.72
2024-02-21T12:42:00.550Z,100995.84
2024-02-21T12:44:27.607Z,101005.41
2024-02-21T12:46:56.130Z,100993.72
2024-02-21T12:49:23.400Z,100986.56
2024-02-21T12:51:50.480Z,100978.69
2024-02-21T12:54:17.084Z,100963.16
2024-02-21T12:56:43.668Z,100963.75
2024-02-21T12:59:10.455Z,100970.72
2024-02-21T13:01:39.222Z,100966.06
2024-02-21T13:04:06.618Z,100947.72
2024-02-21T13:06:33.431Z,100938.81
2024-02-21T13:09:00.721Z,100932.59
2024-02-21T13:11:32.162Z,100922.28
2024-02-21T13:13:59.324Z,100915.25
2024-02-21T13:16:27.546Z,100913.19
2024-02-21T13:18:54.571Z,100912.94
2024-02-21T13:21:21.363Z,100902.38
2024-02-21T13:23:48.309Z,100896.34
2024-02-21T13:26:15.428Z,100897.13
2024-02-21T13:28:42.107Z,100881.16
2024-02-21T13:31:08.740Z,100878.88
2024-02-21T13:33:35.359Z,100884.25
2024-02-21T13:36:03.309Z,100874.88
2024-02-21T13:38:30.038Z,100869.56
2024-02-21T13:40:56.691Z,100851.97
2024-02-21T13:43:23.425Z,100847.59
2024-02-21T13:45:59.460Z,100848.63
2024-02-21T13:48:26.291Z,100843.50
2024-02-21T13:50:53.020Z,100830.25
2024-02-21T13:53:19.688Z,100814.69
2024-02-21T13:55:46.699Z,100807.84
2024-02-21T13:58:13.660Z,100808.66
2024-02-21T14:00:40.240Z,100776.53
2024-02-21T14:03:06.950Z,100770.41
2024-02-21T14:05:33.542Z,100761.94
2024-02-21T14:08:00.157Z,100741.66
2024-02-21T14:10:26.867Z,100745.94
2024-02-21T14:12:53.503Z,100728.97
2024-02-21T14:15:20.158Z,100710.09
2024-02-21T14:17:47.324Z,100693.06
2024-02-21T14:20:17.701Z,100684.63
2024-02-21T14:22:44.883Z,100688.84
2024-02-21T14:25:11.565Z,100666.94
2024-02-21T14:27:38.279Z,100655.41
2024-02-21T14:30:05.584Z,100645.53
2024-02-21T14:32:32.431Z,100645.53
2024-02-21T14:35:01.712Z,100640.75
2024-02-21T14:37:30.022Z,100634.53
2024-02-21T14:39:56.658Z,100638.06
2024-02-21T14:42:23.421Z,100629.03
2024-02-21T14:44:50.033Z,100622.03
2024-02-21T14:47:16.682Z,100615.13
2024-02-21T14:49:43.809Z,100605.78
2024-02-21T14:52:11.914Z,100597.97
2024-02-21T14:54:39.186Z,100585.47
2024-02-21T14:57:06.031Z,100579.78
2024-02-21T14:59:35.164Z,100555.41
2024-02-21T15:02:02.402Z,100562.78
2024-02-21T15:04:29.425Z,100553.41
2024-02-21T15:06:56.060Z,100544.25
2024-02-21T15:09:22.607Z,100533.00
2024-02-21T15:11:49.226Z,100536.47
2024-02-21T15:14:15.807Z,100519.88
2024-02-21T15:16:42.558Z,100509.69
2024-02-21T15:19:09.124Z,100497.31
2024-02-21T15:21:35.695Z,100482.44
2024-02-21T15:24:03.012Z,100476.84
2024-02-21T15:26:30.854Z,100474.31
2024-02-21T15:28:57.595Z,100468.72
2024-02-21T15:31:25.031Z,100465.38
2024-02-21T15:33:54.562Z,100455.88
2024-02-21T15:36:21.738Z,100452.81
2024-02-21T15:38:48.457Z,100456.53
2024-02-21T15:41:15.423Z,100457.97
2024-02-21T15:43:43.984Z,100436.47
2024-02-21T15:46:14.284Z,100457.09
2024-02-21T15:48:41.278Z,100441.34
2024-02-21T15:51:08.095Z,100433.72
2024-02-21T15:53:34.700Z,100416.34
2024-02-21T15:56:01.398Z,100414.47
2024-02-21T15:58:28.971Z,100395.38
2024-02-21T16:00:55.850Z,100403.81
2024-02-21T16:03:23.210Z,100408.97
2024-02-21T16:05:50.287Z,100392.84
2024-02-21T16:08:19.693Z,100388.69
2024-02-21T16:10:46.685Z,100386.84
2024-02-21T16:13:13.434Z,100384.94
2024-02-21T16:15:40.112Z,100383.72
2024-02-21T16:18:06.875Z,100365.31
2024-02-21T16:20:33.630Z,100361.00
2024-02-21T16:23:04.283Z,100350.66
2024-02-21T16:25:31.470Z,100349.22
2024-02-21T16:27:58.841Z,100343.41
2024-02-21T16:30:25.542Z,100341.59
2024-02-21T16:32:53.426Z,100327.50
2024-02-21T16:35:20.600Z,100322.34
2024-02-21T16:37:48.633Z,100326.47
2024-02-21T16:40:15.353Z,100323.34
2024-02-21T16:42:41.983Z,100310.75
2024-02-21T16:45:09.658Z,100310.94
2024-02-21T16:47:36.639Z,100302.91
2024-02-21T16:50:04.100Z,100298.13
2024-02-21T16:52:32.397Z,100288.63
2024-02-21T16:54:59.454Z,100288.63
2024-02-21T16:57:26.078Z,100281.19
2024-02-21T16:59:52.960Z,100275.84
2024-02-21T17:02:21.061Z,100263.84
2024-02-21T17:04:48.593Z,100269.59
2024-02-21T17:07:15.255Z,100255.13
2024-02-21T17:09:41.796Z,100251.41
2024-02-21T17:12:08.876Z,100254.31
2024-02-21T17:14:36.035Z,100252.22
2024-02-21T17:17:03.170Z,100241.72
2024-02-21T17:19:30.083Z,100236.16
2024-02-21T17:21:56.800Z,100246.69
2024-02-21T17:24:24.466Z,100237.75
2024-02-21T17:26:50.978Z,100235.56
2024-02-21T17:29:17.697Z,100229.97
2024-02-21T17:31:44.442Z,100222.56
2024-02-21T17:34:11.338Z,100221.53
2024-02-21T17:36:38.092Z,100208.06
2024-02-21T17:39:05.934Z,100199.44
2024-02-21T17:41:32.569Z,100193.25
2024-02-21T17:43:59.192Z,100195.06
2024-02-21T17:46:25.942Z,100188.25
2024-02-21T17:48:52.682Z,100185.53
2024-02-21T17:51:19.272Z,100169.22
2024-02-21T17:53:45.981Z,100163.44
2024-02-21T17:56:12.711Z,100170.25
2024-02-21T17:58:39.853Z,100155.63
2024-02-21T18:01:06.626Z,100150.44
2024-02-21T18:03:33.241Z,100147.94
2024-02-21T18:06:04.752Z,100153.31
2024-02-21T18:08:32.165Z,100151.06
2024-02-21T18:10:59.140Z,100150.25
2024-02-21T18:13:26.025Z,100130.19
2024-02-21T18:15:53.022Z,100133.53
2024-02-21T18:18:19.687Z,100134.38
2024-02-21T18:20:46.655Z,100130.91
2024-02-21T18:23:13.420Z,100124.09
2024-02-21T18:25:41.316Z,100121.41
2024-02-21T18:28:07.954Z,100106.72
2024-02-21T18:30:34.590Z,100112.91
2024-02-21T18:33:03.390Z,100113.91
2024-02-21T18:35:30.023Z,100099.84
2024-02-21T18:37:57.055Z,100086.66
2024-02-21T18:40:24.325Z,100093.69
2024-02-21T18:42:51.277Z,100079.03
2024-02-21T18:45:17.903Z,100083.94
2024-02-21T18:47:44.804Z,100065.78
2024-02-21T18:50:12.552Z,100066.38
2024-02-21T18:52:39.226Z,100067.59
2024-02-21T18:55:06.359Z,100052.97
2024-02-21T18:57:34.557Z,100057.72
2024-02-21T19:00:08.043Z,100040.16
2024-02-21T19:02:34.851Z,100047.59
2024-02-21T19:05:01.660Z,100044.47
2024-02-21T19:07:29.562Z,100035.19
2024-02-21T19:09:56.272Z,100025.31
2024-02-21T19:12:25.004Z,100025.31
2024-02-21T19:14:51.505Z,100026.75
2024-02-21T19:17:18.046Z,100008.16
2024-02-21T19:19:45.556Z,100019.28
2024-02-21T19:22:12.178Z,100005.28
2024-02-21T19:24:38.707Z,100011.06
2024-02-21T19:27:05.588Z,100005.28
2024-02-21T19:29:32.108Z,100003.00
2024-02-21T19:31:58.685Z,100003.19
2024-02-21T19:34:25.876Z,99998.63
2024-02-21T19:36:52.486Z,99994.13
2024-02-21T19:39:19.244Z,99986.69
2024-02-21T19:41:46.572Z,99980.91
2024-02-21T19:44:13.251Z,99976.75
2024-02-21T19:46:40.022Z,99987.72
2024-02-21T19:49:06.659Z,99982.94
2024-02-21T19:51:33.224Z,99975.75
2024-02-21T19:54:10.088Z,99981.94
2024-02-21T19:56:48.655Z,99960.88
2024-02-21T19:59:15.257Z,99961.06
2024-02-21T20:01:42.273Z,99952.41
2024-02-21T20:04:10.030Z,99960.03
2024-02-21T20:06:36.892Z,99955.28
2024-02-21T20:09:07.175Z,99945.34
2024-02-21T20:11:34.167Z,99948.69
2024-02-21T20:14:02.305Z,99941.25
2024-02-21T20:16:29.051Z,99940.41
2024-02-21T20:18:55.610Z,99935.44
2024-02-21T20:21:22.180Z,99929.66
2024-02-21T20:23:48.908Z,99927.81
2024-02-21T20:26:15.641Z,99920.78
2024-02-21T20:28:42.239Z,99924.50
2024-02-21T20:31:08.776Z,99917.69
2024-02-21T20:33:35.288Z,99917.69
2024-02-21T20:36:01.862Z,99910.66
2024-02-21T20:38:28.446Z,99923.66
2024-02-21T20:40:55.089Z,99919.16
2024-02-21T20:43:22.178Z,99907.78
2024-02-21T20:45:48.717Z,99905.50
2024-02-21T20:48:15.335Z,99900.72
2024-02-21T20:50:42.215Z,99899.91
2024-02-21T20:53:09.274Z,99881.75
2024-02-21T20:55:36.004Z,99890.44
2024-02-21T20:58:02.567Z,99885.47
2024-02-21T21:00:29.119Z,99868.94
2024-02-21T21:02:55.728Z,99877.19
2024-02-21T21:05:25.738Z,99879.47
2024-02-21T21:07:52.719Z,99875.75
2024-02-21T21:10:19.381Z,99867.09
2024-02-21T21:12:45.967Z,99866.88
2024-02-21T21:15:12.640Z,99865.81
2024-02-21T21:17:39.459Z,99867.50
2024-02-21T21:20:11.325Z,99855.31
2024-02-21T21:22:40.806Z,99858.81
2024-02-21T21:25:09.328Z,99851.75
2024-02-21T21:27:36.577Z,99858.34
2024-02-21T21:30:05.007Z,99854.63
2024-02-21T21:32:31.831Z,99851.56
2024-02-21T21:34:58.574Z,99856.53
2024-02-21T21:37:25.252Z,99856.31
2024-02-21T21:39:56.114Z,99857.75
2024-02-21T21:42:23.542Z,99848.44
2024-02-21T21:44:50.273Z,99844.72
2024-02-21T21:47:18.264Z,99840.41
2024-02-21T21:49:45.201Z,99839.97
2024-02-21T21:52:12.794Z,99843.06
2024-02-21T21:54:40.948Z,99837.50
2024-02-21T21:57:07.534Z,99835.41
2024-02-21T21:59:34.083Z,99828.22
2024-02-21T22:02:02.109Z,99832.13
2024-02-21T22:04:29.524Z,99823.44
2024-02-21T22:06:56.178Z,99831.72
2024-02-21T22:09:23.071Z,99828.81
2024-02-21T22:11:49.737Z,99808.56
2024-02-21T22:14:16.384Z,99801.31
2024-02-21T22:16:43.016Z,99791.19
2024-02-21T22:19:09.592Z,99783.97
2024-02-21T22:21:36.265Z,99785.41
2024-02-21T22:24:02.873Z,99782.31
2024-02-21T22:26:29.416Z,99782.72
2024-02-21T22:28:57.872Z,99779.41
2024-02-21T22:31:24.674Z,99792.25
2024-02-21T22:33:51.233Z,99791.38
2024-02-21T22:36:20.928Z,99790.56
2024-02-21T22:38:49.612Z,99785.41
2024-02-21T22:41:16.419Z,99782.06
2024-02-21T22:43:44.200Z,99786.16
2024-02-21T22:46:13.882Z,99793.63
2024-02-21T22:48:40.996Z,99787.00
2024-02-21T22:51:09.912Z,99768.81
2024-02-21T22:53:36.676Z,99774.78
2024-02-21T22:56:04.527Z,99775.63
2024-02-21T22:58:31.253Z,99775.81
2024-02-21T23:00:57.850Z,99778.69
2024-02-21T23:03:24.475Z,99777.66
2024-02-21T23:05:51.090Z,99785.09
2024-02-21T23:08:17.654Z,99775.19
2024-02-21T23:10:47.116Z,99772.09
2024-02-21T23:13:14.431Z,99775.41
2024-02-21T23:15:41.257Z,99774.34
2024-02-21T23:18:07.882Z,99775.81
2024-02-21T23:20:34.510Z,99773.53
2024-02-21T23:23:01.243Z,99769.56
2024-02-21T23:25:27.819Z,99774.72
2024-02-21T23:27:54.403Z,99771.00
2024-02-21T23:30:20.958Z,99764.56
2024-02-21T23:32:47.592Z,99753.63
2024-02-21T23:35:15.127Z,99754.66
2024-02-21T23:37:41.728Z,99750.13
2024-02-21T23:40:11.134Z,99751.13
2024-02-21T23:42:39.737Z,99750.53
2024-02-21T23:45:10.033Z,99742.66
2024-02-21T23:47:36.761Z,99749.47
2024-02-21T23:50:04.659Z,99749.47
2024-02-21T23:52:31.404Z,99747.81
2024-02-21T23:54:58.039Z,99743.28
2024-02-21T23:57:24.941Z,99738.06
2024-02-21T23:59:51.403Z,99731.66
